Time;durP1;ratioP1;P1;durP2;ratioP2;P2;SDS_P1;SDS_P2;PMS_P1;PMS_P2;Temp;Humidity;BMP_temperature;BMP_pressure;BME280_temperature;BME280_humidity;BME280_pressure;Samples;Min_cycle;Max_cycle;Signal;HPM_P1;HPM_P2
2021/03/17 00:00:38;;;;;;;7.67;2.87;;;;;;;;;;5071996;28;20265;-74
2021/03/17 00:03:05;;;;;;;5.90;2.50;;;;;;;;;;5071855;28;20630;-74
2021/03/17 00:05:31;;;;;;;8.57;2.67;;;;;;;;;;5054050;28;20239;-75
2021/03/17 00:07:57;;;;;;;6.40;2.83;;;;;;;;;;5070422;28;20727;-74
2021/03/17 00:10:24;;;;;;;9.83;3.00;;;;;;;;;;5070693;28;20645;-74
2021/03/17 00:12:50;;;;;;;8.83;3.07;;;;;;;;;;5070407;28;20231;-74
2021/03/17 00:15:27;;;;;;;9.30;3.40;;;;;;;;;;5053933;28;20205;-75
2021/03/17 00:17:53;;;;;;;4.60;2.70;;;;;;;;;;5070534;28;20209;-75
2021/03/17 00:20:19;;;;;;;7.17;3.13;;;;;;;;;;5070729;28;20199;-75
2021/03/17 00:22:45;;;;;;;7.70;3.37;;;;;;;;;;5070152;28;20646;-75
2021/03/17 00:25:12;;;;;;;10.83;3.63;;;;;;;;;;5071911;28;20658;-75
2021/03/17 00:27:38;;;;;;;10.60;3.07;;;;;;;;;;5070465;28;20170;-75
2021/03/17 00:30:06;;;;;;;7.17;3.47;;;;;;;;;;5053935;28;20677;-75
2021/03/17 00:32:32;;;;;;;7.70;3.20;;;;;;;;;;5053796;28;20242;-75
2021/03/17 00:34:58;;;;;;;8.10;3.53;;;;;;;;;;5070903;28;20257;-75
2021/03/17 00:37:25;;;;;;;11.50;4.00;;;;;;;;;;5053994;28;20173;-75
2021/03/17 00:39:51;;;;;;;7.63;3.47;;;;;;;;;;5053825;28;20311;-74
2021/03/17 00:42:18;;;;;;;7.47;3.47;;;;;;;;;;5072004;28;20211;-75
2021/03/17 00:44:43;;;;;;;8.63;3.80;;;;;;;;;;5057807;28;20174;-74
2021/03/17 00:47:10;;;;;;;5.97;3.43;;;;;;;;;;5074267;28;20177;-75
2021/03/17 00:49:36;;;;;;;6.87;3.70;;;;;;;;;;5074656;28;20211;-75
2021/03/17 00:52:02;;;;;;;9.50;4.07;;;;;;;;;;5075507;28;20174;-75
2021/03/17 00:54:28;;;;;;;9.93;4.10;;;;;;;;;;5074289;28;20174;-74
2021/03/17 00:56:55;;;;;;;8.03;4.07;;;;;;;;;;5075571;28;20182;-75
2021/03/17 00:59:21;;;;;;;10.57;3.73;;;;;;;;;;5074141;28;20220;-75
2021/03/17 01:01:47;;;;;;;9.00;4.17;;;;;;;;;;5074298;28;20174;-75
2021/03/17 01:04:13;;;;;;;9.97;4.50;;;;;;;;;;5074285;28;20178;-75
2021/03/17 01:06:40;;;;;;;8.37;4.63;;;;;;;;;;5074317;28;20178;-76
2021/03/17 01:09:06;;;;;;;11.80;4.47;;;;;;;;;;5073863;28;20205;-75
2021/03/17 01:11:32;;;;;;;8.57;4.73;;;;;;;;;;5075198;28;20777;-75
2021/03/17 01:13:59;;;;;;;8.27;4.60;;;;;;;;;;5057479;28;20552;-75
2021/03/17 01:16:25;;;;;;;9.77;4.70;;;;;;;;;;5057172;28;20182;-75
2021/03/17 01:18:51;;;;;;;8.90;4.80;;;;;;;;;;5073329;28;20201;-75
2021/03/17 01:21:17;;;;;;;9.47;4.97;;;;;;;;;;5057260;28;20211;-75
2021/03/17 01:23:43;;;;;;;7.77;5.00;;;;;;;;;;5074505;28;20226;-75
2021/03/17 01:26:09;;;;;;;9.30;4.80;;;;;;;;;;5057371;28;20177;-75
2021/03/17 01:28:36;;;;;;;8.97;5.20;;;;;;;;;;5074721;28;20552;-76
2021/03/17 01:31:02;;;;;;;9.57;5.20;;;;;;;;;;5057132;28;20284;-76
2021/03/17 01:33:29;;;;;;;9.97;5.17;;;;;;;;;;5073548;28;20707;-75
2021/03/17 01:35:56;;;;;;;9.20;5.40;;;;;;;;;;5073625;28;20184;-75
2021/03/17 01:38:22;;;;;;;8.33;5.40;;;;;;;;;;5073446;28;20212;-75
2021/03/17 01:40:48;;;;;;;11.10;5.93;;;;;;;;;;5057226;28;20181;-76
2021/03/17 01:43:15;;;;;;;11.53;6.47;;;;;;;;;;5056940;28;20178;-76
2021/03/17 01:45:42;;;;;;;10.60;5.97;;;;;;;;;;5073434;28;20238;-76
2021/03/17 01:48:09;;;;;;;8.47;5.77;;;;;;;;;;5073099;28;20197;-75
2021/03/17 01:50:36;;;;;;;12.20;5.97;;;;;;;;;;5073415;28;20203;-76
2021/03/17 01:53:09;;;;;;;13.23;6.27;;;;;;;;;;5056166;28;20190;-76
2021/03/17 01:55:36;;;;;;;13.97;7.13;;;;;;;;;;5074581;28;20174;-76
2021/03/17 01:58:03;;;;;;;10.50;5.83;;;;;;;;;;5056420;28;20205;-76
2021/03/17 02:00:30;;;;;;;8.40;5.37;;;;;;;;;;5056771;28;20664;-76
2021/03/17 02:02:56;;;;;;;10.87;6.40;;;;;;;;;;5073266;28;20192;-75
2021/03/17 02:05:40;;;;;;;10.20;5.93;;;;;;;;;;5073087;28;20177;-75
2021/03/17 02:08:07;;;;;;;11.97;5.57;;;;;;;;;;5072677;28;20205;-76
2021/03/17 02:10:33;;;;;;;9.10;5.70;;;;;;;;;;5056570;28;20646;-76
2021/03/17 02:13:15;;;;;;;12.53;6.50;;;;;;;;;;5056494;28;20731;-76
2021/03/17 02:15:54;;;;;;;8.83;5.80;;;;;;;;;;5072997;28;20268;-77
2021/03/17 02:18:26;;;;;;;8.27;5.20;;;;;;;;;;5074170;28;20743;-75
2021/03/17 02:20:55;;;;;;;8.30;5.43;;;;;;;;;;5074327;28;20173;-74
2021/03/17 02:23:31;;;;;;;6.57;5.03;;;;;;;;;;5073758;28;20183;-77
2021/03/17 02:26:01;;;;;;;4.97;3.20;;;;;;;;;;5074428;28;20181;-77
2021/03/17 02:29:04;;;;;;;4.73;2.90;;;;;;;;;;5073976;28;20194;-77
2021/03/17 02:31:48;;;;;;;3.70;2.73;;;;;;;;;;5016069;28;20193;-77
2021/03/17 02:34:15;;;;;;;3.80;2.90;;;;;;;;;;5069354;28;20203;-77
2021/03/17 02:36:43;;;;;;;5.33;2.90;;;;;;;;;;5073497;28;20177;-76
2021/03/17 02:39:10;;;;;;;3.70;2.70;;;;;;;;;;5056568;28;20705;-77
2021/03/17 02:41:42;;;;;;;7.33;3.37;;;;;;;;;;5074201;28;20266;-77
2021/03/17 02:44:11;;;;;;;4.77;2.97;;;;;;;;;;5056654;28;20228;-76
2021/03/17 02:46:38;;;;;;;7.10;3.10;;;;;;;;;;5056780;28;20645;-77
2021/03/17 02:49:10;;;;;;;5.77;3.67;;;;;;;;;;5073400;28;20563;-77
2021/03/17 02:51:37;;;;;;;4.53;3.03;;;;;;;;;;5056593;28;20278;-77
2021/03/17 02:54:04;;;;;;;6.13;3.70;;;;;;;;;;5056283;28;20268;-77
2021/03/17 02:56:31;;;;;;;7.27;4.00;;;;;;;;;;5073293;28;20187;-76
2021/03/17 02:58:57;;;;;;;5.93;4.03;;;;;;;;;;5073092;28;20239;-76
2021/03/17 03:01:23;;;;;;;7.00;4.17;;;;;;;;;;5075014;28;20784;-77
2021/03/17 03:03:48;;;;;;;7.93;4.10;;;;;;;;;;5073071;28;20461;-77
2021/03/17 03:06:15;;;;;;;7.13;4.50;;;;;;;;;;5074285;28;20181;-77
2021/03/17 03:08:42;;;;;;;6.37;4.10;;;;;;;;;;5075024;28;20200;-77
2021/03/17 03:11:08;;;;;;;6.97;4.43;;;;;;;;;;5075919;28;20178;-77
2021/03/17 03:13:34;;;;;;;9.07;4.80;;;;;;;;;;5057485;28;20219;-77
2021/03/17 03:16:01;;;;;;;7.93;5.00;;;;;;;;;;5056597;28;20185;-77
2021/03/17 03:18:28;;;;;;;9.27;5.53;;;;;;;;;;5071907;28;20553;-76
2021/03/17 03:20:54;;;;;;;10.70;5.13;;;;;;;;;;5071783;28;20180;-76
2021/03/17 03:23:21;;;;;;;7.53;4.80;;;;;;;;;;5071417;28;20183;-76
2021/03/17 03:25:47;;;;;;;8.00;5.37;;;;;;;;;;5072788;28;20197;-76
2021/03/17 03:28:13;;;;;;;9.03;4.80;;;;;;;;;;5071736;28;20207;-76
2021/03/17 03:30:40;;;;;;;8.07;4.70;;;;;;;;;;5071038;28;20275;-77
2021/03/17 03:33:06;;;;;;;7.07;4.60;;;;;;;;;;5070971;28;20181;-75
2021/03/17 03:35:32;;;;;;;9.47;5.07;;;;;;;;;;5071283;28;20200;-75
2021/03/17 03:37:59;;;;;;;10.17;4.80;;;;;;;;;;5070953;28;20201;-75
2021/03/17 03:40:25;;;;;;;9.60;5.47;;;;;;;;;;5071189;28;20587;-76
2021/03/17 03:42:51;;;;;;;11.90;5.60;;;;;;;;;;5071986;28;20197;-75
2021/03/17 03:45:18;;;;;;;9.73;6.30;;;;;;;;;;5070678;28;20201;-75
2021/03/17 03:47:44;;;;;;;8.57;5.60;;;;;;;;;;5054086;28;20694;-76
2021/03/17 03:50:11;;;;;;;9.97;6.17;;;;;;;;;;5054241;28;20654;-75
2021/03/17 03:52:40;;;;;;;9.57;5.87;;;;;;;;;;5070611;28;20176;-76
2021/03/17 03:55:25;;;;;;;9.97;6.20;;;;;;;;;;5070793;28;20259;-75
2021/03/17 03:57:51;;;;;;;10.07;6.03;;;;;;;;;;5070540;28;20220;-76
2021/03/17 04:00:19;;;;;;;4.13;2.57;;;;;;;;;;5070941;28;20205;-75
2021/03/17 04:02:50;;;;;;;6.20;2.13;;;;;;;;;;5054048;28;20222;-75
2021/03/17 04:05:17;;;;;;;5.03;2.33;;;;;;;;;;5053874;28;20180;-75
2021/03/17 04:07:44;;;;;;;5.00;1.80;;;;;;;;;;5053960;28;20185;-76
2021/03/17 04:10:11;;;;;;;7.07;2.00;;;;;;;;;;5071158;28;20172;-75
2021/03/17 04:12:38;;;;;;;6.30;1.90;;;;;;;;;;5054053;28;20185;-76
2021/03/17 04:15:06;;;;;;;6.57;1.60;;;;;;;;;;5053949;28;20244;-75
2021/03/17 04:17:40;;;;;;;2.60;1.50;;;;;;;;;;5070804;28;20180;-76
2021/03/17 04:20:07;;;;;;;4.73;1.60;;;;;;;;;;5070772;28;20227;-75
2021/03/17 04:22:34;;;;;;;3.23;1.60;;;;;;;;;;5070709;28;20173;-75
2021/03/17 04:25:00;;;;;;;3.07;1.13;;;;;;;;;;5056730;28;20183;-75
2021/03/17 04:27:27;;;;;;;4.90;1.40;;;;;;;;;;5057801;28;20179;-75
2021/03/17 04:29:53;;;;;;;5.13;1.40;;;;;;;;;;5074774;28;20702;-75
2021/03/17 04:32:20;;;;;;;3.33;1.57;;;;;;;;;;5056793;28;20181;-75
2021/03/17 04:34:46;;;;;;;3.47;1.50;;;;;;;;;;5071089;28;20188;-75
2021/03/17 04:37:13;;;;;;;3.27;1.17;;;;;;;;;;5070576;28;20174;-75
2021/03/17 04:39:40;;;;;;;4.40;1.73;;;;;;;;;;5070608;28;20217;-75
2021/03/17 04:42:07;;;;;;;3.03;1.30;;;;;;;;;;5053950;28;20181;-75
2021/03/17 04:44:34;;;;;;;6.60;1.83;;;;;;;;;;5054148;28;20197;-75
2021/03/17 04:47:00;;;;;;;7.97;1.90;;;;;;;;;;5070737;28;20181;-75
2021/03/17 04:49:26;;;;;;;3.37;1.20;;;;;;;;;;5070245;28;20571;-76
2021/03/17 04:51:52;;;;;;;5.77;1.33;;;;;;;;;;5053671;28;20185;-76
2021/03/17 04:54:19;;;;;;;4.10;1.30;;;;;;;;;;5053651;28;20192;-75
2021/03/17 04:56:45;;;;;;;6.37;1.53;;;;;;;;;;5053861;28;20218;-76
2021/03/17 04:59:12;;;;;;;4.50;1.40;;;;;;;;;;5070361;28;20240;-76
2021/03/17 05:01:38;;;;;;;4.53;1.50;;;;;;;;;;5070550;28;20201;-76
2021/03/17 05:04:04;;;;;;;5.93;1.40;;;;;;;;;;5069888;28;20543;-76
2021/03/17 05:06:31;;;;;;;6.10;1.20;;;;;;;;;;5070291;28;20185;-75
2021/03/17 05:08:57;;;;;;;6.60;1.70;;;;;;;;;;5071098;28;20219;-75
2021/03/17 05:11:23;;;;;;;4.87;1.80;;;;;;;;;;5070022;28;20189;-75
2021/03/17 05:13:49;;;;;;;5.70;1.40;;;;;;;;;;5053488;28;20551;-76
2021/03/17 05:16:15;;;;;;;3.87;1.50;;;;;;;;;;5071391;28;20181;-76
2021/03/17 05:18:40;;;;;;;6.27;1.73;;;;;;;;;;5053487;28;20219;-76
2021/03/17 05:21:06;;;;;;;5.87;1.33;;;;;;;;;;5071324;28;20652;-76
2021/03/17 05:23:33;;;;;;;8.53;1.70;;;;;;;;;;5053172;28;20235;-75
2021/03/17 05:25:59;;;;;;;3.77;1.50;;;;;;;;;;5069773;28;20659;-75
2021/03/17 05:28:25;;;;;;;6.03;1.60;;;;;;;;;;5093280;23;20230;-79
2021/03/17 05:30:51;;;;;;;6.70;1.53;;;;;;;;;;5073813;28;20188;-79
2021/03/17 05:33:18;;;;;;;3.93;1.50;;;;;;;;;;5073520;28;20177;-79
2021/03/17 05:35:44;;;;;;;4.70;1.40;;;;;;;;;;5073282;28;20177;-79
2021/03/17 05:38:09;;;;;;;7.03;1.53;;;;;;;;;;5073055;28;20220;-78
2021/03/17 05:40:36;;;;;;;3.47;1.60;;;;;;;;;;5056890;28;20227;-78
2021/03/17 05:43:03;;;;;;;6.20;2.00;;;;;;;;;;5071296;28;20654;-80
2021/03/17 05:45:29;;;;;;;8.67;1.83;;;;;;;;;;5073543;28;20189;-78
2021/03/17 05:47:55;;;;;;;7.73;2.20;;;;;;;;;;5047998;28;20576;-78
2021/03/17 05:50:22;;;;;;;5.80;1.87;;;;;;;;;;5073032;28;20530;-73
2021/03/17 05:52:48;;;;;;;4.57;1.67;;;;;;;;;;5070899;28;20532;-79
2021/03/17 05:55:14;;;;;;;5.83;1.93;;;;;;;;;;5048472;28;20307;-79
2021/03/17 05:57:42;;;;;;;3.83;2.00;;;;;;;;;;5074799;28;20189;-79
2021/03/17 06:00:09;;;;;;;6.23;1.90;;;;;;;;;;5050506;28;20244;-79
2021/03/17 06:02:36;;;;;;;5.57;1.77;;;;;;;;;;5074854;28;20177;-80
2021/03/17 06:05:03;;;;;;;7.33;2.00;;;;;;;;;;5069065;28;20192;-78
2021/03/17 06:07:29;;;;;;;7.17;2.00;;;;;;;;;;5069884;28;20188;-80
2021/03/17 06:09:56;;;;;;;6.10;2.37;;;;;;;;;;5054371;28;20231;-77
2021/03/17 06:12:22;;;;;;;5.53;2.20;;;;;;;;;;5058449;28;20185;-78
2021/03/17 06:14:49;;;;;;;8.70;2.50;;;;;;;;;;5058888;28;20235;-78
2021/03/17 06:17:17;;;;;;;7.57;2.30;;;;;;;;;;5075022;28;20185;-77
2021/03/17 06:19:43;;;;;;;8.07;2.83;;;;;;;;;;5057925;28;20615;-80
2021/03/17 06:22:10;;;;;;;6.30;2.13;;;;;;;;;;5074060;28;20182;-79
2021/03/17 06:24:36;;;;;;;6.50;2.20;;;;;;;;;;5067491;28;20647;-78
2021/03/17 06:27:02;;;;;;;6.77;1.83;;;;;;;;;;5075144;28;20225;-77
2021/03/17 06:29:28;;;;;;;6.40;2.30;;;;;;;;;;5057616;28;20273;-77
2021/03/17 06:31:54;;;;;;;6.63;2.43;;;;;;;;;;5075054;28;20185;-78
2021/03/17 06:34:20;;;;;;;8.07;2.60;;;;;;;;;;5049820;28;20221;-79
2021/03/17 06:36:50;;;;;;;5.20;2.43;;;;;;;;;;5072257;28;20212;-77
2021/03/17 06:39:16;;;;;;;4.47;1.87;;;;;;;;;;5042685;28;20595;-76
2021/03/17 06:41:49;;;;;;;5.30;2.50;;;;;;;;;;5074106;28;20158;-78
2021/03/17 06:44:21;;;;;;;6.07;2.43;;;;;;;;;;5072865;28;20623;-77
2021/03/17 06:47:06;;;;;;;10.47;2.67;;;;;;;;;;5073491;28;20176;-77
2021/03/17 06:49:36;;;;;;;5.97;2.57;;;;;;;;;;5063609;28;20255;-80
2021/03/17 06:52:09;;;;;;;7.50;2.80;;;;;;;;;;5053740;28;20181;-77
2021/03/17 06:54:35;;;;;;;6.60;3.03;;;;;;;;;;5072808;28;20212;-78
2021/03/17 06:57:01;;;;;;;6.70;2.50;;;;;;;;;;5074281;28;20630;-78
2021/03/17 06:59:27;;;;;;;7.23;2.97;;;;;;;;;;5073183;28;20618;-78
2021/03/17 07:01:52;;;;;;;12.27;3.50;;;;;;;;;;5075089;28;20193;-78
2021/03/17 07:04:19;;;;;;;8.47;3.30;;;;;;;;;;5071687;28;20184;-76
2021/03/17 07:06:46;;;;;;;8.43;3.80;;;;;;;;;;5069862;28;20267;-76
2021/03/17 07:09:16;;;;;;;9.70;3.80;;;;;;;;;;5070582;28;20229;-78
2021/03/17 07:11:42;;;;;;;7.83;3.50;;;;;;;;;;5070849;28;20178;-75
2021/03/17 07:14:08;;;;;;;8.43;3.17;;;;;;;;;;5070420;28;20677;-75
2021/03/17 07:16:38;;;;;;;9.97;3.80;;;;;;;;;;5066580;28;20178;-71
2021/03/17 07:19:05;;;;;;;9.33;3.90;;;;;;;;;;5063652;28;20209;-75
2021/03/17 07:21:31;;;;;;;7.50;3.07;;;;;;;;;;5071748;28;20190;-82
2021/03/17 07:23:57;;;;;;;10.33;3.50;;;;;;;;;;5074061;28;20188;-76
2021/03/17 07:26:24;;;;;;;8.57;3.67;;;;;;;;;;5073512;28;20223;-76
2021/03/17 07:29:02;;;;;;;7.67;3.53;;;;;;;;;;5073500;28;20309;-76
2021/03/17 07:31:29;;;;;;;12.03;4.17;;;;;;;;;;5072539;28;20207;-76
2021/03/17 07:33:56;;;;;;;6.50;3.00;;;;;;;;;;5057311;28;20203;-76
2021/03/17 07:36:32;;;;;;;5.57;2.90;;;;;;;;;;5048323;28;20276;-77
2021/03/17 07:38:59;;;;;;;10.23;3.30;;;;;;;;;;5073694;28;20244;-76
2021/03/17 07:41:25;;;;;;;8.37;3.57;;;;;;;;;;5057803;28;20178;-75
2021/03/17 07:43:51;;;;;;;6.23;2.97;;;;;;;;;;5074045;28;20191;-78
2021/03/17 07:46:17;;;;;;;7.23;3.40;;;;;;;;;;5074491;28;20516;-76
2021/03/17 07:48:43;;;;;;;8.53;3.90;;;;;;;;;;5057427;28;20204;-76
2021/03/17 07:51:09;;;;;;;9.57;4.17;;;;;;;;;;5073245;28;20178;-76
2021/03/17 07:53:35;;;;;;;4.90;3.20;;;;;;;;;;5073955;28;20188;-78
2021/03/17 07:56:01;;;;;;;8.30;3.43;;;;;;;;;;5057632;28;20191;-78
2021/03/17 07:58:28;;;;;;;5.10;3.17;;;;;;;;;;5072484;28;20698;-77
2021/03/17 08:00:54;;;;;;;6.07;2.97;;;;;;;;;;5072813;28;20630;-77
2021/03/17 08:03:19;;;;;;;14.13;3.27;;;;;;;;;;5070520;28;20590;-77
2021/03/17 08:05:45;;;;;;;5.83;2.93;;;;;;;;;;5054454;28;20182;-75
2021/03/17 08:08:12;;;;;;;7.43;2.80;;;;;;;;;;5070782;28;20184;-76
2021/03/17 08:10:39;;;;;;;8.13;3.53;;;;;;;;;;5073260;28;20174;-80
2021/03/17 08:13:06;;;;;;;7.77;2.83;;;;;;;;;;5073895;28;20590;-82
2021/03/17 08:15:32;;;;;;;7.57;2.97;;;;;;;;;;5058179;28;20188;-82
2021/03/17 08:17:58;;;;;;;7.33;2.67;;;;;;;;;;5061692;28;20177;-82
2021/03/17 08:20:27;;;;;;;8.50;2.63;;;;;;;;;;5076355;28;20173;-82
2021/03/17 08:22:53;;;;;;;9.83;2.97;;;;;;;;;;5060089;28;20178;-80
2021/03/17 08:25:35;;;;;;;6.00;2.70;;;;;;;;;;5076271;28;20180;-81
2021/03/17 08:28:21;;;;;;;10.33;2.53;;;;;;;;;;5076198;28;20543;-80
2021/03/17 08:30:47;;;;;;;8.60;3.07;;;;;;;;;;5059430;28;20201;-82
2021/03/17 08:33:32;;;;;;;9.50;2.93;;;;;;;;;;5059249;28;20680;-80
2021/03/17 08:36:01;;;;;;;6.23;2.90;;;;;;;;;;5074268;28;20185;-85
2021/03/17 08:38:45;;;;;;;5.57;2.63;;;;;;;;;;5071368;28;20215;-86
2021/03/17 08:41:11;;;;;;;6.27;2.50;;;;;;;;;;5073902;28;20181;-79
2021/03/17 08:43:37;;;;;;;9.87;2.87;;;;;;;;;;5072579;28;20178;-81
2021/03/17 08:46:07;;;;;;;9.87;3.13;;;;;;;;;;5070651;28;20188;-81
2021/03/17 08:48:52;;;;;;;7.53;3.23;;;;;;;;;;5054302;28;20288;-77
2021/03/17 08:51:18;;;;;;;6.80;2.63;;;;;;;;;;5072819;28;20638;-79
2021/03/17 08:53:44;;;;;;;9.53;3.20;;;;;;;;;;5054917;28;20215;-81
2021/03/17 08:56:30;;;;;;;8.97;3.10;;;;;;;;;;5057461;28;20199;-83
2021/03/17 08:59:14;;;;;;;7.87;3.30;;;;;;;;;;5077529;28;20681;-81
2021/03/17 09:01:40;;;;;;;6.20;3.20;;;;;;;;;;5075319;28;20173;-80
2021/03/17 09:04:06;;;;;;;11.40;2.97;;;;;;;;;;5075414;28;20188;-81
2021/03/17 09:06:32;;;;;;;5.83;3.30;;;;;;;;;;5061202;28;20185;-80
2021/03/17 09:09:18;;;;;;;9.40;3.30;;;;;;;;;;5061367;28;20723;-80
2021/03/17 09:11:44;;;;;;;4.37;2.40;;;;;;;;;;5075454;28;20207;-77
2021/03/17 09:14:21;;;;;;;6.03;2.73;;;;;;;;;;5078078;28;20256;-78
2021/03/17 09:17:07;;;;;;;6.07;3.03;;;;;;;;;;5075020;28;20685;-78
2021/03/17 09:19:43;;;;;;;7.77;2.60;;;;;;;;;;5074377;28;20228;-78
2021/03/17 09:22:29;;;;;;;5.00;2.50;;;;;;;;;;5073817;28;20185;-79
2021/03/17 09:24:55;;;;;;;6.17;2.73;;;;;;;;;;5074680;28;20183;-78
2021/03/17 09:27:21;;;;;;;7.33;2.27;;;;;;;;;;5058859;28;20180;-79
2021/03/17 09:29:47;;;;;;;4.20;2.20;;;;;;;;;;5059452;28;20221;-78
2021/03/17 09:32:13;;;;;;;6.17;1.73;;;;;;;;;;5061390;28;20185;-77
2021/03/17 09:34:38;;;;;;;6.37;2.20;;;;;;;;;;5080822;28;20184;-77
2021/03/17 09:37:05;;;;;;;9.27;2.53;;;;;;;;;;5066016;28;20184;-78
2021/03/17 09:39:31;;;;;;;5.77;2.10;;;;;;;;;;5083113;28;20212;-77
2021/03/17 09:41:57;;;;;;;5.53;2.00;;;;;;;;;;5075387;28;20186;-78
2021/03/17 09:44:23;;;;;;;6.73;2.10;;;;;;;;;;5073371;28;20184;-77
2021/03/17 09:46:52;;;;;;;4.63;1.97;;;;;;;;;;5057318;28;20181;-79
2021/03/17 09:49:19;;;;;;;6.27;1.93;;;;;;;;;;5057524;28;20205;-79
2021/03/17 09:51:49;;;;;;;5.30;1.67;;;;;;;;;;5057298;28;20253;-80
2021/03/17 09:54:16;;;;;;;4.53;1.80;;;;;;;;;;5056827;28;20184;-80
2021/03/17 09:56:49;;;;;;;6.73;1.73;;;;;;;;;;5053919;28;20200;-80
2021/03/17 09:59:22;;;;;;;6.33;1.80;;;;;;;;;;5036517;28;20217;-80
2021/03/17 10:01:51;;;;;;;5.57;1.70;;;;;;;;;;5053418;28;20262;-79
2021/03/17 10:04:18;;;;;;;6.17;2.10;;;;;;;;;;5053131;28;20182;-79
2021/03/17 10:06:45;;;;;;;6.67;2.00;;;;;;;;;;5036841;28;20210;-79
2021/03/17 10:09:11;;;;;;;6.60;2.23;;;;;;;;;;5036509;28;20252;-79
2021/03/17 10:11:36;;;;;;;5.13;2.20;;;;;;;;;;5056668;28;20643;-81
2021/03/17 10:14:02;;;;;;;5.00;2.17;;;;;;;;;;5063253;28;20190;-81
2021/03/17 10:16:28;;;;;;;4.07;1.73;;;;;;;;;;5073900;28;20189;-80
2021/03/17 10:18:54;;;;;;;5.40;1.60;;;;;;;;;;5073939;28;20232;-81
2021/03/17 10:21:25;;;;;;;7.03;1.90;;;;;;;;;;5057098;28;20231;-80
2021/03/17 10:23:52;;;;;;;7.27;1.80;;;;;;;;;;5073693;28;20525;-79
2021/03/17 10:26:18;;;;;;;6.53;1.90;;;;;;;;;;5057222;28;20185;-83
2021/03/17 10:28:44;;;;;;;7.00;2.10;;;;;;;;;;5074691;28;20224;-83
2021/03/17 10:31:09;;;;;;;7.80;6.47;;;;;;;;;;5055357;28;20185;-80
2021/03/17 10:33:35;;;;;;;5.63;2.40;;;;;;;;;;5040454;28;20193;-82
2021/03/17 10:36:01;;;;;;;199.00;92.43;;;;;;;;;;5070053;28;20196;-83
2021/03/17 10:38:27;;;;;;;87.87;40.87;;;;;;;;;;5055945;28;20207;-82
2021/03/17 10:40:53;;;;;;;61.03;30.23;;;;;;;;;;5054418;28;20197;-83
2021/03/17 10:43:19;;;;;;;40.97;26.33;;;;;;;;;;5054239;28;20182;-81
2021/03/17 10:45:49;;;;;;;12.50;7.13;;;;;;;;;;5055658;28;20184;-81
2021/03/17 10:48:18;;;;;;;9.40;6.30;;;;;;;;;;5053872;28;20186;-79
2021/03/17 10:50:45;;;;;;;8.50;2.40;;;;;;;;;;5055554;28;20190;-80
2021/03/17 10:53:21;;;;;;;5.33;4.33;;;;;;;;;;5072395;28;20286;-79
2021/03/17 10:55:47;;;;;;;9.13;6.17;;;;;;;;;;5055634;28;20169;-80
2021/03/17 10:58:14;;;;;;;6.53;4.33;;;;;;;;;;5072653;28;20264;-81
2021/03/17 11:00:40;;;;;;;20.70;12.97;;;;;;;;;;5074544;28;20180;-83
2021/03/17 11:03:21;;;;;;;7.03;3.50;;;;;;;;;;5056369;28;20272;-83
2021/03/17 11:05:47;;;;;;;36.83;29.67;;;;;;;;;;5073566;28;20251;-83
2021/03/17 11:08:13;;;;;;;10.23;4.93;;;;;;;;;;5073096;28;20211;-82
2021/03/17 11:10:41;;;;;;;7.53;2.30;;;;;;;;;;5052875;28;20661;-83
2021/03/17 11:13:10;;;;;;;3.93;2.33;;;;;;;;;;5067471;28;20267;-83
2021/03/17 11:15:36;;;;;;;6.17;2.40;;;;;;;;;;5073536;28;20649;-82
2021/03/17 11:18:02;;;;;;;5.33;2.37;;;;;;;;;;5055422;28;20177;-81
2021/03/17 11:20:28;;;;;;;4.87;2.77;;;;;;;;;;5053267;28;20174;-79
2021/03/17 11:22:54;;;;;;;6.50;4.03;;;;;;;;;;5052291;28;20188;-81
2021/03/17 11:25:23;;;;;;;9.70;5.20;;;;;;;;;;5037480;28;20192;-79
2021/03/17 11:27:49;;;;;;;5.03;2.57;;;;;;;;;;5053820;28;20182;-74
2021/03/17 11:30:15;;;;;;;6.37;3.97;;;;;;;;;;5381552;22;20290;-77
2021/03/17 11:32:41;;;;;;;4.63;2.20;;;;;;;;;;5071067;28;20184;-76
2021/03/17 11:35:07;;;;;;;35.33;24.67;;;;;;;;;;5070974;28;20559;-76
2021/03/17 11:37:33;;;;;;;14.63;9.20;;;;;;;;;;5054679;28;20227;-77
2021/03/17 11:39:59;;;;;;;7.83;2.70;;;;;;;;;;5071014;28;20649;-76
2021/03/17 11:42:25;;;;;;;6.87;2.60;;;;;;;;;;5070868;28;20268;-76
2021/03/17 11:44:52;;;;;;;9.83;4.27;;;;;;;;;;5054481;28;20566;-76
2021/03/17 11:47:18;;;;;;;9.37;2.50;;;;;;;;;;5070423;28;20232;-76
2021/03/17 11:49:44;;;;;;;6.07;2.50;;;;;;;;;;5070909;28;20212;-77
2021/03/17 11:52:10;;;;;;;8.87;2.33;;;;;;;;;;5071136;28;20188;-78
2021/03/17 11:54:37;;;;;;;9.07;6.77;;;;;;;;;;5054240;28;20642;-76
2021/03/17 11:57:03;;;;;;;10.13;7.13;;;;;;;;;;5053841;28;20553;-76
2021/03/17 11:59:29;;;;;;;11.73;4.77;;;;;;;;;;5070674;28;20296;-77
2021/03/17 12:01:55;;;;;;;5.73;2.10;;;;;;;;;;5070819;28;20257;-77
2021/03/17 12:04:21;;;;;;;10.40;4.93;;;;;;;;;;5071814;28;20181;-77
2021/03/17 12:06:47;;;;;;;58.27;43.63;;;;;;;;;;5071863;28;20180;-77
2021/03/17 12:09:13;;;;;;;23.90;14.37;;;;;;;;;;5054993;28;20197;-78
2021/03/17 12:11:40;;;;;;;7.47;3.83;;;;;;;;;;5071882;28;20205;-78
2021/03/17 12:14:06;;;;;;;4.07;1.20;;;;;;;;;;5055620;28;20183;-78
2021/03/17 12:16:32;;;;;;;4.63;1.50;;;;;;;;;;5072589;28;20556;-78
2021/03/17 12:18:58;;;;;;;7.13;2.13;;;;;;;;;;5071950;28;20259;-78
2021/03/17 12:21:24;;;;;;;12.27;8.70;;;;;;;;;;5074794;28;20177;-78
2021/03/17 12:23:51;;;;;;;7.43;2.07;;;;;;;;;;5057039;28;20178;-78
2021/03/17 12:26:17;;;;;;;7.10;2.20;;;;;;;;;;5055667;28;20188;-77
2021/03/17 12:28:43;;;;;;;6.30;3.40;;;;;;;;;;5071563;28;20178;-78
2021/03/17 12:31:09;;;;;;;8.33;2.40;;;;;;;;;;5055540;28;20235;-77
2021/03/17 12:33:35;;;;;;;6.23;1.37;;;;;;;;;;5056805;28;20185;-77
2021/03/17 12:36:01;;;;;;;9.57;1.73;;;;;;;;;;5073934;28;20173;-77
2021/03/17 12:38:27;;;;;;;6.50;2.43;;;;;;;;;;5077885;28;20276;-77
2021/03/17 12:40:53;;;;;;;5.03;1.57;;;;;;;;;;5075453;28;20230;-77
2021/03/17 12:43:19;;;;;;;5.70;2.33;;;;;;;;;;5076006;28;20677;-77
2021/03/17 12:45:45;;;;;;;6.70;1.73;;;;;;;;;;5059657;28;20209;-77
2021/03/17 12:48:15;;;;;;;6.60;3.53;;;;;;;;;;5075961;28;20192;-76
2021/03/17 12:50:41;;;;;;;5.43;1.60;;;;;;;;;;5059282;28;20208;-76
2021/03/17 12:53:07;;;;;;;6.10;1.60;;;;;;;;;;5075935;28;20643;-77
2021/03/17 12:55:34;;;;;;;5.40;1.70;;;;;;;;;;5059548;28;20186;-78
2021/03/17 12:58:00;;;;;;;6.43;1.37;;;;;;;;;;5076419;28;20265;-77
2021/03/17 13:00:28;;;;;;;4.60;1.57;;;;;;;;;;5076127;28;20213;-77
2021/03/17 13:02:54;;;;;;;4.67;2.00;;;;;;;;;;5075706;28;20177;-76
2021/03/17 13:05:20;;;;;;;6.00;2.27;;;;;;;;;;5059453;28;20181;-76
2021/03/17 13:07:46;;;;;;;7.13;1.43;;;;;;;;;;5077691;28;20201;-76
2021/03/17 13:10:16;;;;;;;6.23;1.53;;;;;;;;;;5075407;28;20227;-76
2021/03/17 13:12:42;;;;;;;6.47;1.70;;;;;;;;;;5075459;28;20188;-77
2021/03/17 13:15:08;;;;;;;5.13;1.80;;;;;;;;;;5058191;28;20785;-77
2021/03/17 13:17:34;;;;;;;4.67;1.70;;;;;;;;;;5058024;28;20181;-77
2021/03/17 13:20:01;;;;;;;5.50;1.70;;;;;;;;;;5075833;28;20205;-77
2021/03/17 13:22:28;;;;;;;5.93;1.40;;;;;;;;;;5060311;28;20207;-76
2021/03/17 13:24:54;;;;;;;5.10;1.40;;;;;;;;;;5075799;28;20185;-77
2021/03/17 13:27:20;;;;;;;6.27;1.60;;;;;;;;;;5058093;28;20179;-76
2021/03/17 13:29:46;;;;;;;5.83;1.50;;;;;;;;;;5056903;28;20562;-76
2021/03/17 13:32:12;;;;;;;5.20;1.53;;;;;;;;;;5057254;28;20544;-76
2021/03/17 13:34:38;;;;;;;6.67;1.50;;;;;;;;;;5057464;28;20283;-76
2021/03/17 13:37:06;;;;;;;6.20;1.13;;;;;;;;;;5057097;28;20694;-76
2021/03/17 13:39:32;;;;;;;5.50;1.40;;;;;;;;;;5057153;28;20627;-75
2021/03/17 13:41:58;;;;;;;8.23;1.47;;;;;;;;;;5057297;28;20306;-74
2021/03/17 13:44:25;;;;;;;4.87;1.40;;;;;;;;;;5074742;28;20199;-77
2021/03/17 13:46:51;;;;;;;5.37;1.57;;;;;;;;;;5056964;28;20177;-77
2021/03/17 13:49:17;;;;;;;6.60;1.40;;;;;;;;;;5072655;28;20197;-76
2021/03/17 13:51:43;;;;;;;5.43;1.53;;;;;;;;;;5057072;28;20189;-76
2021/03/17 13:54:10;;;;;;;3.90;1.70;;;;;;;;;;5056888;28;20182;-77
2021/03/17 13:56:36;;;;;;;7.37;1.90;;;;;;;;;;5057195;28;20182;-77
2021/03/17 13:59:03;;;;;;;8.13;1.77;;;;;;;;;;5057064;28;20290;-76
2021/03/17 14:01:29;;;;;;;5.40;1.30;;;;;;;;;;5057097;28;20173;-76
2021/03/17 14:03:55;;;;;;;5.07;1.63;;;;;;;;;;5073586;28;20180;-76
2021/03/17 14:06:22;;;;;;;4.50;1.60;;;;;;;;;;5056436;28;20645;-76
2021/03/17 14:08:48;;;;;;;5.70;1.50;;;;;;;;;;5056397;28;20186;-76
2021/03/17 14:11:15;;;;;;;5.83;1.43;;;;;;;;;;5074588;28;20231;-76
2021/03/17 14:13:41;;;;;;;5.57;1.40;;;;;;;;;;5073165;28;20182;-76
2021/03/17 14:16:07;;;;;;;4.53;1.30;;;;;;;;;;5056548;28;20236;-76
2021/03/17 14:18:33;;;;;;;3.57;1.40;;;;;;;;;;5056827;28;20201;-76
2021/03/17 14:20:59;;;;;;;5.33;1.10;;;;;;;;;;5073012;28;20192;-76
2021/03/17 14:23:25;;;;;;;6.63;1.40;;;;;;;;;;5056736;28;20560;-76
2021/03/17 14:25:51;;;;;;;4.97;1.20;;;;;;;;;;5056155;28;20181;-76
2021/03/17 14:28:18;;;;;;;4.67;1.50;;;;;;;;;;5056408;28;20219;-77
2021/03/17 14:30:44;;;;;;;3.03;1.10;;;;;;;;;;5056354;28;20674;-77
2021/03/17 14:33:10;;;;;;;2.90;1.37;;;;;;;;;;5056072;28;20174;-76
2021/03/17 14:35:36;;;;;;;4.70;1.60;;;;;;;;;;5055640;28;20185;-77
2021/03/17 14:38:02;;;;;;;8.73;1.70;;;;;;;;;;5072329;28;20173;-76
2021/03/17 14:40:30;;;;;;;5.40;1.40;;;;;;;;;;5055787;28;20324;-77
2021/03/17 14:42:56;;;;;;;4.07;1.47;;;;;;;;;;5072194;28;20179;-77